Time;durP1;ratioP1;P1;durP2;ratioP2;P2;SDS_P1;SDS_P2;PMS_P1;PMS_P2;Temp;Humidity;BMP_temperature;BMP_pressure;BME280_temperature;BME280_humidity;BME280_pressure;Samples;Min_cycle;Max_cycle;Signal;HPM_P1;HPM_P2
2023/08/07 00:00:09;;;;;;;1.50;1.50;;;21.10;77.30;;;;;;5076855;28;43602;-73
2023/08/07 00:02:37;;;;;;;1.00;1.00;;;21.20;77.10;;;;;;5087761;28;43429;-72
2023/08/07 00:05:05;;;;;;;1.13;1.13;;;21.20;76.90;;;;;;5078746;28;43762;-70
2023/08/07 00:07:35;;;;;;;1.50;1.10;;;21.10;77.10;;;;;;5087626;28;43452;-70
2023/08/07 00:10:03;;;;;;;1.20;1.20;;;21.10;77.30;;;;;;5082603;27;43993;-70
2023/08/07 00:12:31;;;;;;;1.30;1.30;;;21.10;77.10;;;;;;5077993;28;43392;-70
2023/08/07 00:15:00;;;;;;;1.20;1.20;;;21.10;77.10;;;;;;5072475;28;43480;-70
2023/08/07 00:17:28;;;;;;;1.10;1.10;;;21.10;77.20;;;;;;5089229;28;43445;-70
2023/08/07 00:19:56;;;;;;;1.20;1.20;;;21.00;77.50;;;;;;5081812;27;43862;-71
2023/08/07 00:22:25;;;;;;;1.20;1.20;;;20.90;77.60;;;;;;5086231;28;43454;-70
2023/08/07 00:24:54;;;;;;;1.20;1.20;;;21.00;77.50;;;;;;5076460;27;43385;-73
2023/08/07 00:27:22;;;;;;;1.10;1.10;;;20.90;77.40;;;;;;5075706;28;43353;-73
2023/08/07 00:29:51;;;;;;;1.17;1.17;;;20.90;77.50;;;;;;5077065;28;43833;-73
2023/08/07 00:32:19;;;;;;;1.30;1.30;;;20.90;77.90;;;;;;5070178;28;43371;-74
2023/08/07 00:34:47;;;;;;;1.23;1.23;;;20.90;77.90;;;;;;5072745;28;43475;-74
2023/08/07 00:37:15;;;;;;;1.20;1.20;;;21.00;77.60;;;;;;5070064;28;43302;-72
2023/08/07 00:39:44;;;;;;;1.33;1.33;;;21.10;77.10;;;;;;5081669;28;45656;-73
2023/08/07 00:42:13;;;;;;;1.23;1.23;;;21.30;76.70;;;;;;5074348;28;45058;-73
2023/08/07 00:44:41;;;;;;;1.20;1.20;;;21.30;76.40;;;;;;5068993;28;43383;-73
2023/08/07 00:47:09;;;;;;;1.17;1.17;;;21.30;76.30;;;;;;5079154;27;43426;-73
2023/08/07 00:49:37;;;;;;;1.10;1.10;;;21.20;76.40;;;;;;5089165;27;44009;-73
2023/08/07 00:52:06;;;;;;;1.13;1.13;;;21.10;76.60;;;;;;5083433;27;43654;-73
2023/08/07 00:54:34;;;;;;;1.30;1.30;;;21.10;77.30;;;;;;5088299;28;43431;-73
2023/08/07 00:57:06;;;;;;;1.00;1.00;;;21.10;77.30;;;;;;5086927;27;43457;-74
2023/08/07 00:59:36;;;;;;;0.90;0.90;;;21.00;77.10;;;;;;5082507;28;45624;-73
2023/08/07 01:02:04;;;;;;;1.10;1.10;;;21.00;77.20;;;;;;5084200;28;45047;-73
2023/08/07 01:04:32;;;;;;;1.20;1.20;;;21.00;77.40;;;;;;5080473;28;43406;-73
2023/08/07 01:07:00;;;;;;;1.10;1.10;;;20.90;77.70;;;;;;5083134;28;43380;-74
2023/08/07 01:09:28;;;;;;;1.00;1.00;;;20.90;77.50;;;;;;5080386;28;43608;-73
2023/08/07 01:11:58;;;;;;;1.07;1.07;;;20.90;77.50;;;;;;5084202;27;43426;-73
2023/08/07 01:14:30;;;;;;;1.27;1.27;;;20.90;77.50;;;;;;5085286;27;43467;-73
2023/08/07 01:17:01;;;;;;;1.00;1.00;;;20.90;77.90;;;;;;5079905;27;43448;-70
2023/08/07 01:19:30;;;;;;;1.00;1.00;;;20.90;78.00;;;;;;5075666;28;43614;-69
2023/08/07 01:22:09;;;;;;;1.03;1.03;;;21.00;77.50;;;;;;5078367;27;44386;-70
2023/08/07 01:24:39;;;;;;;1.10;1.10;;;21.10;77.10;;;;;;5079208;27;43470;-69
2023/08/07 01:27:14;;;;;;;1.07;1.07;;;21.20;76.90;;;;;;5080967;27;43489;-70
2023/08/07 01:29:44;;;;;;;1.10;1.10;;;21.10;76.70;;;;;;5082625;28;43842;-70
2023/08/07 01:32:11;;;;;;;1.20;1.20;;;21.10;77.20;;;;;;5085508;27;43442;-70
2023/08/07 01:34:39;;;;;;;1.00;1.00;;;21.10;77.20;;;;;;5082061;28;43850;-70
2023/08/07 01:37:09;;;;;;;1.20;1.20;;;21.10;77.00;;;;;;5083407;27;43537;-70
2023/08/07 01:39:37;;;;;;;1.00;1.00;;;21.00;76.90;;;;;;5075504;28;43600;-69
2023/08/07 01:42:08;;;;;;;0.90;0.90;;;21.00;77.10;;;;;;5081065;28;45174;-70
2023/08/07 01:44:37;;;;;;;1.00;1.00;;;21.00;77.50;;;;;;5085415;28;43781;-69
2023/08/07 01:47:06;;;;;;;0.97;0.97;;;20.90;77.50;;;;;;5078353;27;43493;-70
2023/08/07 01:49:34;;;;;;;1.00;1.00;;;20.90;77.40;;;;;;5080837;28;46076;-70
2023/08/07 01:52:02;;;;;;;1.10;1.10;;;20.90;77.40;;;;;;5078820;28;44743;-70
2023/08/07 01:54:31;;;;;;;1.00;1.00;;;20.90;77.50;;;;;;5079809;28;43418;-70
2023/08/07 01:56:59;;;;;;;1.10;1.10;;;20.90;78.00;;;;;;5086430;28;43709;-70
2023/08/07 01:59:27;;;;;;;1.00;1.00;;;20.90;77.80;;;;;;5078148;28;45729;-70
2023/08/07 02:01:55;;;;;;;1.00;1.00;;;21.00;77.40;;;;;;5079863;27;44411;-70
2023/08/07 02:04:23;;;;;;;0.90;0.90;;;21.20;77.00;;;;;;5081389;27;43438;-69
2023/08/07 02:06:51;;;;;;;1.00;1.00;;;21.30;76.60;;;;;;5076885;28;43333;-69
2023/08/07 02:09:22;;;;;;;0.90;0.90;;;21.30;76.20;;;;;;5068868;28;44011;-71
2023/08/07 02:11:52;;;;;;;1.10;1.10;;;21.30;76.20;;;;;;5078438;28;45202;-70
2023/08/07 02:14:20;;;;;;;1.20;1.20;;;21.20;76.40;;;;;;5081943;28;43530;-70
2023/08/07 02:16:50;;;;;;;1.10;1.10;;;21.10;76.60;;;;;;5071598;28;43561;-70
2023/08/07 02:19:18;;;;;;;1.10;1.10;;;21.10;77.10;;;;;;5084807;27;43693;-71
2023/08/07 02:21:46;;;;;;;1.00;1.00;;;21.00;77.00;;;;;;5065072;28;44667;-70
2023/08/07 02:24:14;;;;;;;1.03;1.03;;;21.00;76.90;;;;;;5080784;28;43393;-70
2023/08/07 02:26:42;;;;;;;1.20;1.10;;;21.00;77.10;;;;;;5079132;27;43377;-73
2023/08/07 02:29:11;;;;;;;1.00;1.00;;;20.90;77.30;;;;;;5083810;27;43610;-73
2023/08/07 02:31:39;;;;;;;0.90;0.90;;;20.90;77.70;;;;;;5075672;27;43915;-74
2023/08/07 02:34:07;;;;;;;0.87;0.87;;;20.90;77.50;;;;;;5069646;28;43404;-73
2023/08/07 02:36:35;;;;;;;1.07;1.07;;;20.90;77.40;;;;;;5075213;28;43423;-72
2023/08/07 02:39:04;;;;;;;1.20;1.20;;;20.80;77.40;;;;;;5086156;27;43720;-73
2023/08/07 02:41:32;;;;;;;0.90;0.90;;;20.80;77.60;;;;;;5078327;27;43877;-73
2023/08/07 02:44:01;;;;;;;1.10;1.10;;;20.80;77.90;;;;;;5082598;28;43509;-73
2023/08/07 02:46:31;;;;;;;1.03;1.03;;;20.90;77.50;;;;;;5083372;28;43530;-73
2023/08/07 02:48:59;;;;;;;0.90;0.90;;;21.10;77.20;;;;;;5073898;27;43613;-72
2023/08/07 02:51:26;;;;;;;1.23;1.10;;;21.20;76.80;;;;;;5076727;28;44690;-72
2023/08/07 02:53:54;;;;;;;0.97;0.97;;;21.20;76.40;;;;;;5077736;28;43405;-72
2023/08/07 02:56:22;;;;;;;1.07;1.07;;;21.20;76.30;;;;;;5086574;28;43437;-72
2023/08/07 02:58:50;;;;;;;0.80;0.80;;;21.20;76.50;;;;;;5079426;27;43847;-73
2023/08/07 03:01:18;;;;;;;0.83;0.83;;;21.10;76.70;;;;;;5084599;27;43378;-72
2023/08/07 03:03:48;;;;;;;1.00;1.00;;;21.00;77.20;;;;;;5071488;27;43984;-73
2023/08/07 03:06:16;;;;;;;1.00;1.00;;;21.00;77.10;;;;;;5078264;27;43832;-72
2023/08/07 03:08:44;;;;;;;1.00;1.00;;;21.00;77.00;;;;;;5077787;27;45586;-72
2023/08/07 03:11:12;;;;;;;0.90;0.90;;;20.90;77.00;;;;;;5082249;27;43381;-72
2023/08/07 03:13:41;;;;;;;1.10;1.10;;;20.90;77.20;;;;;;5082762;28;43508;-72
2023/08/07 03:16:09;;;;;;;0.90;0.90;;;20.90;77.70;;;;;;5085050;28;43546;-73
2023/08/07 03:18:38;;;;;;;1.00;1.00;;;20.90;77.50;;;;;;5083015;28;46123;-73
2023/08/07 03:21:07;;;;;;;1.10;1.10;;;21.00;77.20;;;;;;5079708;28;43959;-73
2023/08/07 03:23:35;;;;;;;0.90;0.90;;;21.00;76.90;;;;;;5079740;28;43401;-73
2023/08/07 03:26:06;;;;;;;1.00;1.00;;;21.00;76.90;;;;;;5084809;27;43594;-72
2023/08/07 03:28:38;;;;;;;0.70;0.70;;;20.90;77.20;;;;;;5084999;28;46430;-72
2023/08/07 03:31:06;;;;;;;0.80;0.80;;;21.00;77.30;;;;;;5086494;28;43824;-73
2023/08/07 03:33:36;;;;;;;0.80;0.80;;;21.00;77.20;;;;;;5080263;27;43360;-72
2023/08/07 03:36:06;;;;;;;1.00;1.00;;;20.90;77.00;;;;;;5084309;28;43923;-70
2023/08/07 03:38:34;;;;;;;0.80;0.80;;;20.90;77.20;;;;;;5075874;28;43921;-70
2023/08/07 03:41:03;;;;;;;1.10;1.10;;;20.80;77.40;;;;;;5082817;28;44404;-69
2023/08/07 03:43:31;;;;;;;1.00;1.00;;;20.90;77.80;;;;;;5084811;27;43454;-70
2023/08/07 03:45:59;;;;;;;0.80;0.80;;;21.00;77.50;;;;;;5078217;28;43400;-70
2023/08/07 03:48:31;;;;;;;0.90;0.90;;;21.00;76.90;;;;;;5078580;28;45441;-70
2023/08/07 03:51:05;;;;;;;1.00;1.00;;;21.10;76.70;;;;;;5082939;27;44729;-70
2023/08/07 03:53:39;;;;;;;0.83;0.83;;;21.10;76.70;;;;;;5086411;28;43378;-70
2023/08/07 03:56:09;;;;;;;0.90;0.90;;;21.00;77.10;;;;;;5083066;27;43466;-72
2023/08/07 03:58:37;;;;;;;0.90;0.90;;;21.00;77.00;;;;;;5083861;28;46012;-72
2023/08/07 04:01:06;;;;;;;0.90;0.90;;;21.00;76.80;;;;;;5083114;28;43479;-72
2023/08/07 04:03:35;;;;;;;0.83;0.83;;;21.00;76.90;;;;;;5080798;28;43460;-72
2023/08/07 04:06:05;;;;;;;0.90;0.90;;;20.90;77.00;;;;;;5084228;28;43404;-72
2023/08/07 04:08:33;;;;;;;1.03;1.03;;;20.90;78.20;;;;;;5074717;28;45682;-72
2023/08/07 04:11:03;;;;;;;1.10;1.10;;;20.90;77.50;;;;;;5080104;27;43388;-73
2023/08/07 04:13:32;;;;;;;0.97;0.97;;;20.90;77.30;;;;;;5067590;28;43462;-72
2023/08/07 04:16:00;;;;;;;0.93;0.93;;;20.80;77.20;;;;;;5080743;28;43566;-72
2023/08/07 04:18:30;;;;;;;0.90;0.90;;;20.80;77.40;;;;;;5078870;28;46163;-72
2023/08/07 04:20:58;;;;;;;0.80;0.80;;;20.80;77.90;;;;;;5077151;27;44727;-72
2023/08/07 04:23:26;;;;;;;0.80;0.80;;;20.80;77.70;;;;;;5079682;27;43375;-71
2023/08/07 04:25:54;;;;;;;0.83;0.83;;;20.90;77.30;;;;;;5087069;27;43807;-72
2023/08/07 04:28:24;;;;;;;1.00;1.00;;;21.10;76.90;;;;;;5070082;28;44867;-72
2023/08/07 04:30:52;;;;;;;0.90;0.90;;;21.20;76.40;;;;;;5084419;28;44817;-72
2023/08/07 04:33:20;;;;;;;0.90;0.90;;;21.20;76.20;;;;;;5084807;27;43924;-72
2023/08/07 04:35:48;;;;;;;0.90;0.90;;;21.20;76.20;;;;;;5081217;28;43584;-73
2023/08/07 04:38:16;;;;;;;1.10;1.10;;;21.10;76.30;;;;;;5082167;28;45763;-73
2023/08/07 04:40:46;;;;;;;0.70;0.70;;;21.00;76.60;;;;;;5080380;28;44740;-72
2023/08/07 04:43:14;;;;;;;0.90;0.90;;;21.00;77.10;;;;;;5081566;27;43393;-73
2023/08/07 04:45:44;;;;;;;0.90;0.90;;;21.00;77.00;;;;;;5078739;28;43392;-71
2023/08/07 04:48:13;;;;;;;0.80;0.80;;;20.90;77.00;;;;;;5084525;27;45898;-71
2023/08/07 04:50:41;;;;;;;0.80;0.80;;;20.90;77.10;;;;;;5080905;28;43380;-70
2023/08/07 04:53:09;;;;;;;1.07;0.90;;;20.90;77.30;;;;;;5088317;27;43418;-71
2023/08/07 04:55:37;;;;;;;1.00;1.00;;;20.90;77.70;;;;;;5078496;27;43423;-70
2023/08/07 04:58:05;;;;;;;0.93;0.93;;;20.90;77.40;;;;;;5084278;28;43905;-70
2023/08/07 05:00:33;;;;;;;0.80;0.80;;;21.00;76.90;;;;;;5083670;27;43413;-69
2023/08/07 05:03:03;;;;;;;0.90;0.90;;;21.00;76.60;;;;;;5083076;28;43475;-69
2023/08/07 05:05:31;;;;;;;0.80;0.80;;;21.00;76.60;;;;;;5072119;27;43450;-72
2023/08/07 05:07:59;;;;;;;0.90;0.90;;;21.00;77.00;;;;;;5084532;27;43681;-72
2023/08/07 05:10:27;;;;;;;0.80;0.80;;;21.00;76.90;;;;;;5072548;27;43457;-73
2023/08/07 05:12:56;;;;;;;0.90;0.90;;;21.00;76.80;;;;;;5088347;27;43449;-72
2023/08/07 05:15:24;;;;;;;0.90;0.90;;;21.00;76.90;;;;;;5081979;28;43435;-72
2023/08/07 05:17:52;;;;;;;0.87;0.87;;;20.90;76.90;;;;;;5083138;28;45997;-73
2023/08/07 05:20:22;;;;;;;1.00;1.00;;;20.90;77.30;;;;;;5083590;27;43462;-72
2023/08/07 05:22:50;;;;;;;0.90;0.90;;;20.80;77.40;;;;;;5074797;27;43431;-72
2023/08/07 05:25:18;;;;;;;0.80;0.80;;;20.90;77.30;;;;;;5075403;28;43479;-73
2023/08/07 05:27:46;;;;;;;0.80;0.80;;;20.90;77.20;;;;;;5076567;28;45971;-72
2023/08/07 05:30:14;;;;;;;0.80;0.80;;;20.90;77.40;;;;;;5079729;28;43363;-72
2023/08/07 05:32:43;;;;;;;0.70;0.70;;;20.80;77.40;;;;;;5082989;28;43455;-72
2023/08/07 05:35:11;;;;;;;0.80;0.80;;;20.80;77.80;;;;;;5074016;28;43519;-72
2023/08/07 05:37:40;;;;;;;0.80;0.80;;;20.80;77.40;;;;;;5084998;28;43920;-72
2023/08/07 05:40:11;;;;;;;0.83;0.83;;;21.00;77.10;;;;;;5078492;27;43379;-72
2023/08/07 05:42:40;;;;;;;0.70;0.70;;;21.10;76.60;;;;;;5078460;28;43584;-72
2023/08/07 05:45:10;;;;;;;0.90;0.90;;;21.20;76.40;;;;;;5085283;28;43450;-72
2023/08/07 05:47:38;;;;;;;0.80;0.80;;;21.20;76.20;;;;;;5079116;27;43700;-72
2023/08/07 05:50:07;;;;;;;0.90;0.90;;;21.10;76.20;;;;;;5080756;28;43373;-72
2023/08/07 05:52:35;;;;;;;1.00;1.00;;;21.10;76.50;;;;;;5083828;27;43814;-72
2023/08/07 05:55:04;;;;;;;0.90;0.90;;;21.00;76.90;;;;;;5082507;28;43458;-70
2023/08/07 05:57:35;;;;;;;0.80;0.80;;;21.00;77.10;;;;;;5081766;28;47102;-70
2023/08/07 06:00:03;;;;;;;0.80;0.80;;;20.90;76.90;;;;;;5079416;28;43946;-70
2023/08/07 06:02:38;;;;;;;0.83;0.83;;;20.90;77.00;;;;;;5073326;28;43361;-70
2023/08/07 06:05:08;;;;;;;0.80;0.80;;;20.90;77.10;;;;;;5076739;28;43399;-70
2023/08/07 06:07:36;;;;;;;0.90;0.90;;;20.80;77.50;;;;;;5079676;27;43598;-69
2023/08/07 06:10:08;;;;;;;0.80;0.80;;;20.90;77.40;;;;;;5078861;28;44652;-69
2023/08/07 06:12:36;;;;;;;0.80;0.80;;;21.00;77.00;;;;;;5082130;28;43923;-70
2023/08/07 06:15:05;;;;;;;0.80;0.80;;;21.00;76.80;;;;;;5076504;27;43436;-72
2023/08/07 06:17:33;;;;;;;0.80;0.80;;;21.00;76.70;;;;;;5081890;28;43558;-72
2023/08/07 06:20:01;;;;;;;0.90;0.90;;;21.00;77.10;;;;;;5083337;28;45129;-72
2023/08/07 06:22:29;;;;;;;0.70;0.70;;;21.00;76.90;;;;;;5081673;27;43609;-72
2023/08/07 06:24:57;;;;;;;0.90;0.90;;;21.00;76.90;;;;;;5084137;28;43652;-72
2023/08/07 06:27:26;;;;;;;0.90;0.90;;;20.90;76.90;;;;;;5072739;28;45668;-72
2023/08/07 06:29:55;;;;;;;0.80;0.80;;;20.90;77.10;;;;;;5074556;28;44697;-72
2023/08/07 06:32:23;;;;;;;1.00;1.00;;;20.80;77.40;;;;;;5070582;28;43380;-72
2023/08/07 06:34:51;;;;;;;1.00;1.00;;;20.80;77.20;;;;;;5069812;27;43517;-72
2023/08/07 06:37:19;;;;;;;0.80;0.80;;;20.90;77.30;;;;;;5069174;28;44038;-72
2023/08/07 06:39:49;;;;;;;0.80;0.80;;;20.80;77.30;;;;;;5066980;28;44943;-72
2023/08/07 06:42:17;;;;;;;0.90;0.90;;;20.80;77.40;;;;;;5070577;27;43391;-73
2023/08/07 06:44:49;;;;;;;0.80;0.80;;;20.80;78.00;;;;;;5071636;28;44048;-73
2023/08/07 06:47:17;;;;;;;0.80;0.80;;;20.90;77.50;;;;;;5067476;28;43592;-72
2023/08/07 06:49:45;;;;;;;0.70;0.70;;;21.00;77.00;;;;;;5069858;27;43445;-72
2023/08/07 06:52:13;;;;;;;0.90;0.90;;;21.00;76.80;;;;;;5082644;27;43394;-72
2023/08/07 06:54:41;;;;;;;0.90;0.90;;;21.00;76.70;;;;;;5083518;27;43339;-72
2023/08/07 06:57:09;;;;;;;0.80;0.80;;;20.90;77.00;;;;;;5080424;27;45596;-73
2023/08/07 06:59:38;;;;;;;0.80;0.80;;;21.00;77.10;;;;;;5075513;28;43521;-72
2023/08/07 07:02:07;;;;;;;0.80;0.80;;;21.00;76.90;;;;;;5075651;27;43434;-72
2023/08/07 07:04:36;;;;;;;0.80;0.80;;;21.00;76.90;;;;;;5078284;27;43300;-70
2023/08/07 07:07:04;;;;;;;0.80;0.80;;;20.90;76.90;;;;;;5078227;27;43598;-72
2023/08/07 07:09:32;;;;;;;0.80;0.80;;;20.80;77.00;;;;;;5084426;28;44844;-73
2023/08/07 07:12:00;;;;;;;0.90;0.90;;;20.80;77.60;;;;;;5070992;27;43557;-72
2023/08/07 07:14:28;;;;;;;0.90;0.90;;;20.90;77.40;;;;;;5074820;28;43467;-73
2023/08/07 07:16:56;;;;;;;0.80;0.80;;;21.00;77.00;;;;;;5079003;27;43768;-72
2023/08/07 07:19:26;;;;;;;0.73;0.73;;;21.00;76.80;;;;;;5070521;27;43537;-72
2023/08/07 07:21:54;;;;;;;1.00;1.00;;;21.00;76.70;;;;;;5070463;27;43512;-72
2023/08/07 07:24:22;;;;;;;0.70;0.70;;;21.00;77.00;;;;;;5065162;28;43604;-73
2023/08/07 07:26:50;;;;;;;1.00;1.00;;;21.00;77.00;;;;;;5068280;28;43615;-70
2023/08/07 07:29:19;;;;;;;0.90;0.90;;;20.90;76.80;;;;;;5065989;28;44219;-71
2023/08/07 07:31:47;;;;;;;0.80;0.80;;;20.90;76.80;;;;;;5065214;28;43469;-70
2023/08/07 07:34:15;;;;;;;1.07;1.07;;;20.90;77.00;;;;;;5069184;28;43462;-70
2023/08/07 07:36:45;;;;;;;0.80;0.80;;;20.90;77.40;;;;;;5064416;28;45383;-70
2023/08/07 07:39:13;;;;;;;0.90;0.90;;;20.80;77.20;;;;;;5067009;28;44026;-71
2023/08/07 07:41:41;;;;;;;0.70;0.70;;;20.90;77.30;;;;;;5063435;28;43500;-70
2023/08/07 07:44:09;;;;;;;0.83;0.83;;;20.80;77.20;;;;;;5071701;28;43471;-70
2023/08/07 07:46:37;;;;;;;0.80;0.80;;;20.80;77.30;;;;;;5065420;28;43611;-71
2023/08/07 07:49:05;;;;;;;0.80;0.80;;;20.80;77.70;;;;;;5065577;28;44688;-70
2023/08/07 07:51:35;;;;;;;0.90;0.90;;;20.80;77.70;;;;;;5067237;28;43969;-70
2023/08/07 07:54:04;;;;;;;0.77;0.77;;;20.90;77.30;;;;;;5066898;28;43385;-70
2023/08/07 07:56:41;;;;;;;0.90;0.90;;;21.10;76.90;;;;;;5069265;27;44903;-70
2023/08/07 07:59:09;;;;;;;0.83;0.83;;;21.20;76.40;;;;;;5069732;28;44392;-70
2023/08/07 08:01:37;;;;;;;0.83;0.83;;;21.20;76.10;;;;;;5069367;28;44222;-70
2023/08/07 08:04:06;;;;;;;0.80;0.80;;;21.20;76.20;;;;;;5067570;28;43595;-70
2023/08/07 08:06:34;;;;;;;0.90;0.90;;;21.10;76.30;;;;;;5074193;28;43859;-70
2023/08/07 08:09:04;;;;;;;0.80;0.80;;;21.00;76.60;;;;;;5068540;28;44983;-70
2023/08/07 08:11:33;;;;;;;0.77;0.77;;;20.90;77.00;;;;;;5069794;28;43354;-69
2023/08/07 08:14:01;;;;;;;0.73;0.73;;;20.90;76.90;;;;;;5069385;28;43539;-68
2023/08/07 08:16:29;;;;;;;0.77;0.77;;;20.90;77.00;;;;;;5070208;28;45394;-68
2023/08/07 08:18:57;;;;;;;1.00;1.00;;;20.80;77.00;;;;;;5074192;28;43387;-69
2023/08/07 08:21:25;;;;;;;0.80;0.80;;;20.80;77.10;;;;;;5078494;28;43406;-69
2023/08/07 08:23:53;;;;;;;0.83;0.83;;;20.80;77.60;;;;;;5071454;27;43427;-69
2023/08/07 08:26:21;;;;;;;0.90;0.90;;;20.80;77.50;;;;;;5080374;28;43868;-69
2023/08/07 08:28:51;;;;;;;0.77;0.77;;;20.80;77.40;;;;;;5070755;27;44193;-70
2023/08/07 08:31:21;;;;;;;0.80;0.80;;;20.80;77.50;;;;;;5072638;28;43414;-69
2023/08/07 08:33:49;;;;;;;0.90;0.90;;;20.70;77.50;;;;;;5073449;28;43364;-69
2023/08/07 08:36:17;;;;;;;0.87;0.87;;;20.70;77.90;;;;;;5072924;28;43599;-72
2023/08/07 08:38:47;;;;;;;0.90;0.90;;;20.80;77.80;;;;;;5071670;28;43424;-72
2023/08/07 08:41:15;;;;;;;0.80;0.80;;;20.90;77.30;;;;;;5071696;28;43472;-72
2023/08/07 08:43:43;;;;;;;0.83;0.83;;;21.00;76.80;;;;;;5078584;28;43459;-72
2023/08/07 08:46:13;;;;;;;0.80;0.80;;;21.10;76.40;;;;;;5074035;28;43614;-72
2023/08/07 08:48:41;;;;;;;1.00;1.00;;;21.10;76.10;;;;;;5072679;28;44696;-71
2023/08/07 08:51:11;;;;;;;0.80;0.80;;;21.10;76.30;;;;;;5080430;28;43299;-71
2023/08/07 08:53:39;;;;;;;1.00;1.00;;;21.00;76.40;;;;;;5073824;28;43548;-72
2023/08/07 08:56:07;;;;;;;0.83;0.83;;;21.00;76.80;;;;;;5071110;28;43676;-72
2023/08/07 08:58:35;;;;;;;0.80;0.80;;;20.90;77.20;;;;;;5068454;28;43446;-73
2023/08/07 09:01:03;;;;;;;0.80;0.80;;;20.90;77.10;;;;;;5077611;27;43394;-73
2023/08/07 09:03:32;;;;;;;0.87;0.87;;;20.80;77.00;;;;;;5080912;28;43425;-73
2023/08/07 09:06:00;;;;;;;0.90;0.90;;;20.80;77.20;;;;;;5071643;28;43913;-73
2023/08/07 09:08:29;;;;;;;0.90;0.90;;;20.80;78.20;;;;;;5082590;27;43774;-73
2023/08/07 09:10:57;;;;;;;0.80;0.80;;;20.80;77.70;;;;;;5078638;27;43435;-73
2023/08/07 09:13:25;;;;;;;0.80;0.80;;;20.70;77.50;;;;;;5086363;28;43703;-73
2023/08/07 09:15:53;;;;;;;0.80;0.80;;;20.70;77.50;;;;;;5076328;28;44027;-73
2023/08/07 09:18:21;;;;;;;0.83;0.83;;;20.70;77.50;;;;;;5077895;28;43387;-73
2023/08/07 09:20:51;;;;;;;0.80;0.80;;;20.70;77.70;;;;;;5073977;28;43437;-72
2023/08/07 09:23:19;;;;;;;0.80;0.80;;;20.70;78.00;;;;;;5074964;28;43593;-73
2023/08/07 09:25:47;;;;;;;0.70;0.70;;;20.80;77.70;;;;;;5075561;28;43881;-73
2023/08/07 09:28:15;;;;;;;0.83;0.83;;;20.90;77.10;;;;;;5081997;28;45831;-73
2023/08/07 09:30:44;;;;;;;0.60;0.60;;;21.10;76.70;;;;;;5066721;28;43391;-73
2023/08/07 09:33:12;;;;;;;1.10;1.10;;;21.20;76.40;;;;;;5070312;28;43448;-73
2023/08/07 09:35:40;;;;;;;0.70;0.70;;;21.20;76.20;;;;;;5081025;28;43619;-72
2023/08/07 09:38:09;;;;;;;0.90;0.90;;;21.10;76.40;;;;;;5086838;28;44752;-72
2023/08/07 09:40:37;;;;;;;0.80;0.80;;;21.00;76.50;;;;;;5070181;27;43474;-72
2023/08/07 09:43:07;;;;;;;0.80;0.80;;;20.90;76.90;;;;;;5071484;28;43365;-72
2023/08/07 09:45:36;;;;;;;0.60;0.60;;;20.90;77.10;;;;;;5071680;28;43583;-73
2023/08/07 09:48:06;;;;;;;0.80;0.80;;;20.80;77.00;;;;;;5084043;27;43423;-73
2023/08/07 09:50:34;;;;;;;1.00;1.00;;;20.80;77.20;;;;;;5073881;28;43390;-73
2023/08/07 09:53:02;;;;;;;0.70;0.70;;;20.80;77.40;;;;;;5079553;27;43446;-73
2023/08/07 09:55:32;;;;;;;0.80;0.80;;;20.70;77.50;;;;;;5078277;27;43847;-73
2023/08/07 09:58:01;;;;;;;0.80;0.80;;;20.70;77.60;;;;;;5081286;27;43436;-73
2023/08/07 10:00:29;;;;;;;0.80;0.80;;;20.70;77.50;;;;;;5076926;27;43929;-72
2023/08/07 10:02:58;;;;;;;0.90;0.90;;;20.70;77.50;;;;;;5083695;28;43597;-73
2023/08/07 10:05:26;;;;;;;0.80;0.80;;;20.70;77.60;;;;;;5076283;28;43755;-73
2023/08/07 10:07:56;;;;;;;0.80;0.80;;;20.70;77.80;;;;;;5080924;27;43792;-74
2023/08/07 10:10:25;;;;;;;0.80;0.80;;;20.70;78.00;;;;;;5075220;28;43436;-74
2023/08/07 10:12:54;;;;;;;0.80;0.80;;;20.80;77.60;;;;;;5071786;27;43393;-74
2023/08/07 10:15:22;;;;;;;0.90;0.90;;;20.90;77.10;;;;;;5077998;28;45373;-73
2023/08/07 10:17:50;;;;;;;0.90;0.90;;;21.10;76.60;;;;;;5072288;27;44357;-73
2023/08/07 10:20:18;;;;;;;0.80;0.80;;;21.20;76.40;;;;;;5080814;28;43454;-74
2023/08/07 10:22:46;;;;;;;1.00;1.00;;;21.10;76.20;;;;;;5064868;28;43916;-73
2023/08/07 10:25:14;;;;;;;0.70;0.70;;;21.00;76.40;;;;;;5080056;27;43862;-73
2023/08/07 10:27:43;;;;;;;0.90;0.90;;;20.90;76.60;;;;;;5075467;28;43398;-73
2023/08/07 10:30:13;;;;;;;0.90;0.90;;;20.90;77.10;;;;;;5067977;28;43409;-74
2023/08/07 10:32:42;;;;;;;0.93;0.93;;;20.90;77.00;;;;;;5080555;27;43594;-74
2023/08/07 10:35:10;;;;;;;1.00;1.00;;;20.90;77.20;;;;;;5068725;28;45711;-72
2023/08/07 10:37:41;;;;;;;0.97;0.97;;;20.80;77.20;;;;;;5076779;28;43363;-73
2023/08/07 10:40:10;;;;;;;0.90;0.90;;;20.70;77.20;;;;;;5076091;28;43378;-73
2023/08/07 10:43:01;;;;;;;1.00;1.00;;;20.70;77.60;;;;;;5075438;28;43589;-73
2023/08/07 10:45:30;;;;;;;1.50;1.10;;;20.80;77.60;;;;;;5086292;28;43966;-73
2023/08/07 10:48:08;;;;;;;1.10;1.10;;;20.80;77.10;;;;;;5074308;28;44512;-73
2023/08/07 10:50:47;;;;;;;1.33;1.10;;;20.90;76.90;;;;;;5065465;28;43475;-73
2023/08/07 10:53:20;;;;;;;1.13;1.10;;;20.80;76.50;;;;;;5082422;28;43953;-73
2023/08/07 10:55:48;;;;;;;1.27;1.27;;;20.80;77.20;;;;;;5072562;28;43571;-71
2023/08/07 10:58:24;;;;;;;1.13;1.13;;;20.80;77.00;;;;;;5082576;27;44316;-71
2023/08/07 11:01:02;;;;;;;1.07;1.07;;;20.80;77.00;;;;;;5080783;27;43419;-71
2023/08/07 11:03:30;;;;;;;1.30;1.30;;;20.80;77.00;;;;;;5081239;27;43688;-69
2023/08/07 11:05:59;;;;;;;1.13;1.13;;;20.70;77.10;;;;;;5078588;28;45904;-71
2023/08/07 11:08:27;;;;;;;1.20;1.20;;;20.70;77.50;;;;;;5074914;28;43961;-70
2023/08/07 11:10:58;;;;;;;1.10;1.10;;;20.80;77.40;;;;;;5079531;28;43485;-71
2023/08/07 11:13:26;;;;;;;1.30;1.30;;;20.80;77.00;;;;;;5083273;28;43368;-70
2023/08/07 11:15:56;;;;;;;1.00;1.00;;;20.90;76.80;;;;;;5085882;27;44032;-71
2023/08/07 11:18:24;;;;;;;1.10;1.10;;;20.80;76.80;;;;;;5077173;28;43497;-71
2023/08/07 11:20:52;;;;;;;1.20;1.20;;;20.80;77.20;;;;;;5074580;27;43452;-70
2023/08/07 11:23:24;;;;;;;1.00;1.00;;;20.80;77.10;;;;;;5083258;28;43553;-71
2023/08/07 11:25:52;;;;;;;1.03;1.03;;;20.80;77.10;;;;;;5075834;28;45787;-69
2023/08/07 11:28:20;;;;;;;1.20;1.20;;;20.80;77.20;;;;;;5080843;28;43376;-70
2023/08/07 11:30:49;;;;;;;1.10;1.10;;;20.70;77.20;;;;;;5076314;28;43398;-70
2023/08/07 11:33:20;;;;;;;1.40;1.40;;;20.70;77.50;;;;;;5074961;28;43463;-70
2023/08/07 11:35:48;;;;;;;1.20;1.20;;;20.80;77.60;;;;;;5076597;27;43622;-71
2023/08/07 11:38:29;;;;;;;1.20;1.20;;;20.80;77.20;;;;;;5083864;27;43925;-71
2023/08/07 11:40:59;;;;;;;1.20;1.20;;;20.90;76.90;;;;;;5080184;27;43426;-71
2023/08/07 11:43:28;;;;;;;1.27;1.27;;;20.90;77.50;;;;;;5083465;27;43774;-70
2023/08/07 11:45:56;;;;;;;1.17;1.17;;;20.80;76.90;;;;;;5085259;27;43594;-70
2023/08/07 11:48:26;;;;;;;1.17;1.17;;;20.80;77.00;;;;;;5088021;28;43521;-70
2023/08/07 11:50:54;;;;;;;1.20;1.20;;;20.90;77.00;;;;;;5075654;28;43411;-70
2023/08/07 11:53:23;;;;;;;1.10;1.10;;;20.80;77.00;;;;;;5085564;28;44038;-72
2023/08/07 11:55:55;;;;;;;1.07;1.07;;;20.80;77.10;;;;;;5078548;27;43893;-71
2023/08/07 11:58:23;;;;;;;1.10;1.10;;;20.80;77.40;;;;;;5080182;28;44428;-69
2023/08/07 12:00:51;;;;;;;1.20;1.20;;;20.70;77.40;;;;;;5080443;27;43433;-70
2023/08/07 12:03:27;;;;;;;1.00;1.00;;;20.70;77.40;;;;;;5088475;27;43373;-70
2023/08/07 12:05:56;;;;;;;1.10;1.10;;;20.70;77.40;;;;;;5075184;28;43870;-72
2023/08/07 12:08:24;;;;;;;1.03;1.03;;;20.70;77.50;;;;;;5086557;27;43540;-72
2023/08/07 12:10:54;;;;;;;1.10;1.10;;;20.70;77.70;;;;;;5084355;28;43771;-72
2023/08/07 12:13:24;;;;;;;1.00;1.00;;;20.70;77.90;;;;;;5083190;28;43420;-72
2023/08/07 12:15:54;;;;;;;1.10;1.10;;;20.80;77.60;;;;;;5072690;27;43567;-72
2023/08/07 12:18:22;;;;;;;1.10;1.10;;;20.90;77.10;;;;;;5070022;28;43451;-72
2023/08/07 12:20:52;;;;;;;1.10;1.10;;;21.10;76.60;;;;;;5074187;28;43853;-73
2023/08/07 12:23:21;;;;;;;0.97;0.97;;;21.10;76.30;;;;;;5082074;28;43415;-72
2023/08/07 12:25:49;;;;;;;1.20;1.20;;;21.10;76.30;;;;;;5078908;28;46725;-72
2023/08/07 12:28:18;;;;;;;1.10;1.10;;;21.00;76.50;;;;;;5069995;28;44632;-72
2023/08/07 12:30:46;;;;;;;1.03;1.03;;;20.90;76.70;;;;;;5071690;28;43410;-72
2023/08/07 12:33:14;;;;;;;1.20;1.20;;;20.80;77.10;;;;;;5079342;28;43429;-72
2023/08/07 12:35:42;;;;;;;1.10;1.10;;;20.90;77.20;;;;;;5071609;28;43624;-73
2023/08/07 12:38:13;;;;;;;1.20;1.20;;;20.80;77.10;;;;;;5078866;27;43471;-72
2023/08/07 12:40:42;;;;;;;0.93;0.93;;;20.80;77.20;;;;;;5072869;28;43515;-72
2023/08/07 12:43:13;;;;;;;1.20;1.20;;;20.70;77.30;;;;;;5079395;27;43573;-72
2023/08/07 12:45:41;;;;;;;1.10;1.10;;;20.70;77.60;;;;;;5087218;27;44496;-72
2023/08/07 12:48:12;;;;;;;0.97;0.97;;;20.70;77.60;;;;;;5077596;28;43458;-72
2023/08/07 12:50:40;;;;;;;1.00;1.00;;;20.70;77.60;;;;;;5078031;28;43475;-72
2023/08/07 12:53:09;;;;;;;0.93;0.93;;;20.70;77.60;;;;;;5076032;27;43457;-72
2023/08/07 12:55:38;;;;;;;1.03;1.03;;;20.70;77.70;;;;;;5075343;28;43919;-70